createdAt,value
2017-09-20T00:00:37.034Z,0
2017-09-20T00:01:37.810Z,0
2017-09-20T00:02:38.857Z,0
2017-09-20T00:03:39.780Z,0
2017-09-20T00:04:40.929Z,0
2017-09-20T00:05:43.245Z,0
2017-09-20T00:06:43.817Z,0
2017-09-20T00:07:44.855Z,0
2017-09-20T00:08:45.598Z,0
2017-09-20T00:09:46.526Z,0
2017-09-20T00:10:47.424Z,0
2017-09-20T00:11:48.299Z,0
2017-09-20T00:12:49.204Z,0
2017-09-20T00:13:50.057Z,0
2017-09-20T00:14:51.158Z,0
2017-09-20T00:15:52.209Z,0
2017-09-20T00:16:53.316Z,0
2017-09-20T00:17:54.073Z,0
2017-09-20T00:18:54.887Z,0
2017-09-20T00:19:56.043Z,0
2017-09-20T00:20:56.782Z,0
2017-09-20T00:21:57.588Z,0
2017-09-20T00:22:58.387Z,0
2017-09-20T00:23:59.193Z,0
2017-09-20T00:24:59.927Z,0
2017-09-20T00:26:00.751Z,0
2017-09-20T00:27:01.458Z,0
2017-09-20T00:28:02.247Z,0
2017-09-20T00:29:02.967Z,0
2017-09-20T00:30:03.715Z,0
2017-09-20T00:31:04.545Z,0
2017-09-20T00:32:05.357Z,0
2017-09-20T00:33:06.194Z,0
2017-09-20T00:34:07.160Z,0
2017-09-20T00:35:07.917Z,0
2017-09-20T00:36:08.692Z,0
2017-09-20T00:37:09.533Z,0
2017-09-20T00:38:10.264Z,0
2017-09-20T00:39:11.079Z,0
2017-09-20T00:40:11.897Z,0
2017-09-20T00:41:12.625Z,0
2017-09-20T00:42:13.354Z,0
2017-09-20T00:43:14.182Z,0
2017-09-20T00:44:15.290Z,0
2017-09-20T00:45:16.579Z,0
2017-09-20T00:46:17.453Z,0
2017-09-20T00:47:18.231Z,0
2017-09-20T00:48:19.022Z,0
2017-09-20T00:49:20.732Z,0
2017-09-20T00:50:21.507Z,0
2017-09-20T00:51:22.326Z,0
2017-09-20T00:52:23.082Z,0
2017-09-20T00:53:24.118Z,0
2017-09-20T00:54:24.982Z,0
2017-09-20T00:55:25.794Z,0
2017-09-20T00:56:26.566Z,0
2017-09-20T00:57:27.294Z,0
2017-09-20T00:58:28.252Z,0
2017-09-20T00:59:29.061Z,0
2017-09-20T01:00:30.016Z,0
2017-09-20T01:01:30.829Z,0
2017-09-20T01:02:31.625Z,0
2017-09-20T01:03:32.336Z,0
2017-09-20T01:04:33.149Z,0
2017-09-20T01:05:34.044Z,0
2017-09-20T01:06:34.901Z,0
2017-09-20T01:07:35.668Z,0
2017-09-20T01:08:36.481Z,0
2017-09-20T01:09:37.298Z,0
2017-09-20T01:10:38.133Z,0
2017-09-20T01:11:38.851Z,0
2017-09-20T01:12:39.906Z,0
2017-09-20T01:13:40.652Z,0
2017-09-20T01:14:41.409Z,0
2017-09-20T01:15:42.165Z,0
2017-09-20T01:16:42.870Z,0
2017-09-20T01:17:43.802Z,0
2017-09-20T01:18:44.649Z,0
2017-09-20T01:19:45.658Z,0
2017-09-20T01:20:46.516Z,0
2017-09-20T01:21:47.319Z,0
2017-09-20T01:22:48.155Z,0
2017-09-20T01:23:48.912Z,0
2017-09-20T01:24:49.807Z,0
2017-09-20T01:25:50.607Z,0
2017-09-20T01:26:51.419Z,0
2017-09-20T01:27:52.221Z,0
2017-09-20T01:28:53.170Z,0
2017-09-20T01:29:53.988Z,0
2017-09-20T01:30:54.759Z,0
2017-09-20T01:31:55.633Z,0
2017-09-20T01:32:56.601Z,0
2017-09-20T01:33:57.719Z,0
2017-09-20T01:34:58.533Z,0
2017-09-20T01:35:59.376Z,0
2017-09-20T01:37:00.205Z,0
2017-09-20T01:38:00.888Z,0
2017-09-20T01:39:02.037Z,0
2017-09-20T01:40:02.803Z,0
2017-09-20T01:41:03.628Z,0
2017-09-20T01:42:04.339Z,0
2017-09-20T01:43:05.079Z,0
2017-09-20T01:44:05.826Z,0
2017-09-20T01:45:06.621Z,0
2017-09-20T01:46:07.361Z,0
2017-09-20T01:47:08.097Z,0
2017-09-20T01:48:08.980Z,0
2017-09-20T01:49:09.704Z,0
2017-09-20T01:50:10.519Z,0
2017-09-20T01:51:11.289Z,0
2017-09-20T01:52:11.997Z,0
2017-09-20T01:53:12.781Z,0
2017-09-20T01:54:13.571Z,0
2017-09-20T01:55:14.599Z,0
2017-09-20T01:56:15.698Z,0
2017-09-20T01:57:16.552Z,0
2017-09-20T01:58:17.424Z,0
2017-09-20T01:59:18.172Z,0
2017-09-20T02:00:19.123Z,0
2017-09-20T02:01:19.890Z,0
2017-09-20T02:02:20.677Z,0
2017-09-20T02:03:21.419Z,0
2017-09-20T02:04:22.255Z,0
2017-09-20T02:05:23.562Z,0
2017-09-20T02:06:24.306Z,0
2017-09-20T02:07:25.002Z,0
2017-09-20T02:08:25.885Z,0
2017-09-20T02:09:26.716Z,0
2017-09-20T02:10:27.505Z,0
2017-09-20T02:11:28.304Z,0
2017-09-20T02:12:29.113Z,0
2017-09-20T02:13:29.803Z,0
2017-09-20T02:14:30.566Z,0
2017-09-20T02:15:31.425Z,0
2017-09-20T02:16:32.093Z,0
2017-09-20T02:17:32.876Z,0
2017-09-20T02:18:33.648Z,0
2017-09-20T02:19:34.474Z,0
2017-09-20T02:20:35.255Z,0
2017-09-20T02:21:35.984Z,0
2017-09-20T02:22:36.807Z,0
2017-09-20T02:23:37.537Z,0
2017-09-20T02:24:38.343Z,0
2017-09-20T02:25:39.459Z,0
2017-09-20T02:26:40.226Z,0
2017-09-20T02:27:41.459Z,0
2017-09-20T02:28:42.216Z,0
2017-09-20T02:29:43.184Z,0
2017-09-20T02:30:43.948Z,0
2017-09-20T02:31:44.807Z,0
2017-09-20T02:32:45.606Z,0
2017-09-20T02:33:46.342Z,0
2017-09-20T02:34:47.297Z,0
2017-09-20T02:35:48.135Z,0
2017-09-20T02:36:48.981Z,0
2017-09-20T02:37:49.817Z,0
2017-09-20T02:38:50.573Z,0
2017-09-20T02:39:51.612Z,0
2017-09-20T02:40:52.360Z,0
2017-09-20T02:41:53.123Z,0
2017-09-20T02:42:53.889Z,0
2017-09-20T02:43:54.761Z,0
2017-09-20T02:44:55.582Z,0
2017-09-20T02:45:56.284Z,0
2017-09-20T02:46:57.206Z,0
2017-09-20T02:47:58.030Z,0
2017-09-20T02:48:58.768Z,0
2017-09-20T02:49:59.664Z,0
2017-09-20T02:51:00.456Z,0
2017-09-20T02:52:01.183Z,0
2017-09-20T02:53:01.957Z,0
2017-09-20T02:54:02.617Z,0
2017-09-20T02:55:03.356Z,0
2017-09-20T02:56:04.162Z,0
2017-09-20T02:57:05.002Z,0
2017-09-20T02:58:05.750Z,0
2017-09-20T02:59:06.527Z,0
2017-09-20T03:00:07.451Z,0
2017-09-20T03:01:08.238Z,0
2017-09-20T03:02:09.027Z,0
2017-09-20T03:03:10.026Z,0
2017-09-20T03:04:10.738Z,0
2017-09-20T03:05:11.525Z,0
2017-09-20T03:07:27.795Z,0
2017-09-20T03:08:28.615Z,0
2017-09-20T03:09:29.375Z,0
2017-09-20T03:10:30.191Z,0
2017-09-20T03:11:30.955Z,0
2017-09-20T03:12:31.784Z,0
2017-09-20T03:13:32.451Z,0
2017-09-20T03:14:33.233Z,0
2017-09-20T03:15:34.020Z,0
2017-09-20T03:16:34.734Z,0
2017-09-20T03:17:35.576Z,0
2017-09-20T03:18:36.679Z,0
2017-09-20T03:19:37.521Z,0
2017-09-20T03:20:38.410Z,0
2017-09-20T03:21:39.176Z,0
2017-09-20T03:22:40.310Z,0
2017-09-20T03:23:41.140Z,0
2017-09-20T03:24:41.931Z,0
2017-09-20T03:25:42.916Z,0
2017-09-20T03:26:43.688Z,0
2017-09-20T03:27:44.426Z,0
2017-09-20T03:28:45.269Z,0
2017-09-20T03:29:46.161Z,0
2017-09-20T03:30:46.951Z,0
2017-09-20T03:31:47.914Z,0
2017-09-20T03:32:48.618Z,0
2017-09-20T03:33:49.358Z,0
2017-09-20T03:34:50.130Z,0
2017-09-20T03:35:50.928Z,0
2017-09-20T03:36:51.740Z,0
2017-09-20T03:37:52.504Z,0
2017-09-20T03:38:53.285Z,0
2017-09-20T03:39:54.058Z,0
2017-09-20T03:40:54.927Z,0
2017-09-20T03:41:55.660Z,0
2017-09-20T03:42:56.486Z,0
2017-09-20T03:43:57.345Z,0
2017-09-20T03:44:58.215Z,0
2017-09-20T03:45:59.068Z,0
2017-09-20T03:46:59.953Z,0
2017-09-20T03:48:00.823Z,0
2017-09-20T03:49:01.760Z,0
2017-09-20T03:50:02.540Z,0
2017-09-20T03:51:03.319Z,0
2017-09-20T03:52:04.187Z,0
2017-09-20T03:53:04.910Z,0
2017-09-20T03:54:05.777Z,0
2017-09-20T03:55:06.609Z,0
2017-09-20T03:56:07.470Z,0
2017-09-20T03:57:08.299Z,0
2017-09-20T03:58:09.086Z,0
2017-09-20T03:59:09.905Z,0
2017-09-20T04:00:11.023Z,0
2017-09-20T04:01:11.759Z,0
2017-09-20T04:02:12.544Z,0
2017-09-20T04:03:13.289Z,0
2017-09-20T04:04:14.064Z,0
2017-09-20T04:05:14.887Z,0
2017-09-20T04:06:15.716Z,0
2017-09-20T04:07:16.855Z,0
2017-09-20T04:08:17.594Z,0
2017-09-20T04:09:18.322Z,0
2017-09-20T04:10:19.104Z,0
2017-09-20T04:11:20.075Z,0
2017-09-20T04:12:20.817Z,0
2017-09-20T04:13:21.570Z,0
2017-09-20T04:14:22.429Z,0
2017-09-20T04:15:23.376Z,0
2017-09-20T04:16:24.127Z,0
2017-09-20T04:17:25.071Z,0
2017-09-20T04:18:26.030Z,0
2017-09-20T04:19:26.788Z,0
2017-09-20T04:20:27.587Z,0
2017-09-20T04:21:28.652Z,0
2017-09-20T04:23:30.907Z,0
2017-09-20T04:24:31.680Z,0
2017-09-20T04:25:32.819Z,0
2017-09-20T04:26:33.668Z,0
2017-09-20T04:27:34.516Z,0
2017-09-20T04:28:35.242Z,0
2017-09-20T04:29:36.039Z,0
2017-09-20T04:30:36.777Z,0
2017-09-20T04:31:37.613Z,0
2017-09-20T04:32:38.614Z,0
2017-09-20T04:33:39.451Z,0
2017-09-20T04:34:40.171Z,0
2017-09-20T04:35:40.951Z,0
2017-09-20T04:36:41.675Z,0
2017-09-20T04:37:42.624Z,0
2017-09-20T04:38:43.911Z,0
2017-09-20T04:39:44.682Z,0
2017-09-20T04:40:45.511Z,0
2017-09-20T04:41:46.378Z,0
2017-09-20T04:42:47.149Z,0
2017-09-20T04:43:48.022Z,0
2017-09-20T04:44:48.846Z,0
2017-09-20T04:45:49.971Z,0
2017-09-20T04:46:50.831Z,0
2017-09-20T04:47:51.957Z,0
2017-09-20T04:48:52.712Z,0
2017-09-20T04:49:53.498Z,0
2017-09-20T04:50:54.312Z,0
2017-09-20T04:51:55.075Z,0
2017-09-20T04:52:55.833Z,0
2017-09-20T04:53:56.643Z,0
2017-09-20T04:54:57.409Z,0
2017-09-20T04:55:58.465Z,0
2017-09-20T04:57:00.697Z,0
2017-09-20T04:58:01.631Z,0
2017-09-20T04:59:02.385Z,0
2017-09-20T05:00:03.197Z,0
2017-09-20T05:01:04.352Z,0
2017-09-20T05:02:05.300Z,0
2017-09-20T05:03:06.054Z,0
2017-09-20T05:04:06.987Z,0
2017-09-20T05:05:07.770Z,0
2017-09-20T05:06:08.508Z,0
2017-09-20T05:07:09.308Z,0
2017-09-20T05:08:10.008Z,0
2017-09-20T05:09:10.837Z,0
2017-09-20T05:10:11.602Z,0
2017-09-20T05:11:12.372Z,0
2017-09-20T05:12:13.207Z,0
2017-09-20T05:13:14.008Z,0
2017-09-20T05:14:14.920Z,0
2017-09-20T05:15:16.219Z,0
2017-09-20T05:16:17.112Z,0
2017-09-20T05:17:17.976Z,0
2017-09-20T05:18:19.035Z,0
2017-09-20T05:19:19.865Z,0
2017-09-20T05:20:20.659Z,0
2017-09-20T05:21:21.558Z,0
2017-09-20T05:22:22.347Z,0
2017-09-20T05:23:23.362Z,0
2017-09-20T05:24:24.310Z,0
2017-09-20T05:25:24.989Z,0
2017-09-20T05:26:25.955Z,0
2017-09-20T05:27:27.069Z,0
2017-09-20T05:28:28.211Z,0
2017-09-20T05:29:29.215Z,0
2017-09-20T05:30:30.424Z,0
2017-09-20T05:31:31.240Z,0
2017-09-20T05:32:32.037Z,0
2017-09-20T05:33:32.934Z,0
2017-09-20T05:34:34.003Z,0
2017-09-20T05:35:34.994Z,0
2017-09-20T05:36:36.051Z,0
2017-09-20T05:37:36.784Z,0
2017-09-20T05:38:37.530Z,0
2017-09-20T05:39:38.400Z,0
2017-09-20T05:40:39.150Z,0
2017-09-20T05:41:39.953Z,0
2017-09-20T05:42:40.801Z,0
2017-09-20T05:43:41.698Z,0
2017-09-20T05:44:42.396Z,0
2017-09-20T05:45:43.210Z,0
2017-09-20T05:46:44.158Z,0
2017-09-20T05:47:44.911Z,0
2017-09-20T05:48:45.722Z,0
2017-09-20T05:49:47.031Z,0
2017-09-20T05:50:48.310Z,0
2017-09-20T05:51:49.065Z,0
2017-09-20T05:52:49.931Z,0
2017-09-20T05:53:51.084Z,0
2017-09-20T05:54:51.964Z,0
2017-09-20T05:55:52.779Z,0
2017-09-20T05:56:53.498Z,0
2017-09-20T05:57:54.434Z,0
2017-09-20T05:58:55.192Z,0
2017-09-20T05:59:55.987Z,0
2017-09-20T06:00:57.419Z,0
2017-09-20T06:01:58.128Z,0
2017-09-20T06:02:59.370Z,0
2017-09-20T06:04:07.085Z,0
2017-09-20T06:05:07.930Z,0
2017-09-20T06:06:08.722Z,0
2017-09-20T06:07:09.861Z,0
2017-09-20T06:08:10.780Z,0
2017-09-20T06:09:11.697Z,0
2017-09-20T06:10:12.446Z,0
2017-09-20T06:11:13.202Z,0
2017-09-20T06:12:14.059Z,0
2017-09-20T06:13:14.778Z,0
2017-09-20T06:14:15.497Z,0
2017-09-20T06:15:16.330Z,0
2017-09-20T06:16:17.054Z,0
2017-09-20T06:17:17.878Z,0
2017-09-20T06:18:18.794Z,0
2017-09-20T06:19:19.547Z,0
2017-09-20T06:20:20.247Z,0
2017-09-20T06:21:21.029Z,0
2017-09-20T06:22:21.792Z,0
2017-09-20T06:23:22.565Z,0
2017-09-20T06:24:23.360Z,0
2017-09-20T06:25:24.118Z,0
2017-09-20T06:26:24.915Z,0
2017-09-20T06:27:25.711Z,0
2017-09-20T06:28:26.484Z,0
2017-09-20T06:29:27.236Z,0
2017-09-20T06:30:27.944Z,0
2017-09-20T06:31:28.647Z,0
2017-09-20T06:32:29.413Z,0
2017-09-20T06:33:30.192Z,0
2017-09-20T06:34:30.911Z,0
2017-09-20T06:35:31.686Z,0
2017-09-20T06:36:32.428Z,0
2017-09-20T06:37:33.152Z,0
2017-09-20T06:38:34.131Z,0
2017-09-20T06:39:34.849Z,0
2017-09-20T06:40:35.621Z,0
2017-09-20T06:41:36.524Z,0
2017-09-20T06:42:37.369Z,0
2017-09-20T06:43:38.114Z,0
2017-09-20T06:44:38.847Z,0
2017-09-20T06:45:40.222Z,0
2017-09-20T06:46:40.982Z,0
2017-09-20T06:47:41.656Z,0
2017-09-20T06:48:42.379Z,0
2017-09-20T06:49:43.180Z,0
2017-09-20T06:50:44.152Z,0
2017-09-20T06:51:44.956Z,0
2017-09-20T06:52:45.685Z,0
2017-09-20T06:53:46.644Z,0
2017-09-20T06:54:47.434Z,0
2017-09-20T06:55:48.160Z,0
2017-09-20T06:56:48.872Z,0
2017-09-20T06:57:49.814Z,0
2017-09-20T06:58:50.538Z,0
2017-09-20T06:59:51.313Z,0
2017-09-20T07:00:52.084Z,0
2017-09-20T07:01:52.832Z,0
2017-09-20T07:02:53.608Z,0
2017-09-20T07:03:54.392Z,0
2017-09-20T07:04:55.327Z,0
2017-09-20T07:05:56.049Z,0
2017-09-20T07:06:57.160Z,0
2017-09-20T07:07:57.908Z,0
2017-09-20T07:08:58.703Z,0
2017-09-20T07:09:59.508Z,0
2017-09-20T07:11:00.245Z,0
2017-09-20T07:12:01.280Z,0
2017-09-20T07:13:02.084Z,0
2017-09-20T07:14:02.853Z,0
2017-09-20T07:15:03.858Z,0
2017-09-20T07:16:04.733Z,0
2017-09-20T07:17:05.578Z,0
2017-09-20T07:18:06.287Z,0
2017-09-20T07:19:06.987Z,0
2017-09-20T07:20:07.802Z,0
2017-09-20T07:21:08.601Z,0
2017-09-20T07:22:09.311Z,0
2017-09-20T07:23:10.142Z,0
2017-09-20T07:24:10.853Z,0
2017-09-20T07:25:11.609Z,0
2017-09-20T07:26:12.608Z,0
2017-09-20T07:27:13.421Z,0
2017-09-20T07:28:14.122Z,0
2017-09-20T07:29:15.042Z,0
2017-09-20T07:30:15.903Z,0
2017-09-20T07:31:16.748Z,0
2017-09-20T07:32:17.497Z,0
2017-09-20T07:33:18.418Z,0
2017-09-20T07:34:19.175Z,0
2017-09-20T07:35:20.009Z,0
2017-09-20T07:36:20.742Z,5
2017-09-20T07:37:21.645Z,5
2017-09-20T07:38:22.437Z,5
2017-09-20T07:39:23.140Z,5
2017-09-20T07:40:24.056Z,5
2017-09-20T07:41:24.788Z,5
2017-09-20T07:42:25.545Z,5
2017-09-20T07:43:26.318Z,5
2017-09-20T07:44:27.093Z,5
2017-09-20T07:45:28.110Z,5
2017-09-20T07:46:28.941Z,5
2017-09-20T07:47:29.716Z,5
2017-09-20T07:48:30.606Z,5
2017-09-20T07:49:31.312Z,5
2017-09-20T07:50:32.097Z,5
2017-09-20T07:51:32.808Z,5
2017-09-20T07:52:33.546Z,5
2017-09-20T07:53:34.369Z,5
2017-09-20T07:54:35.088Z,5
2017-09-20T07:55:35.827Z,5
2017-09-20T07:56:36.738Z,5
2017-09-20T07:57:37.559Z,5
2017-09-20T07:58:38.452Z,0
2017-09-20T07:59:39.242Z,5
2017-09-20T08:00:40.067Z,5
2017-09-20T08:01:40.873Z,5
2017-09-20T08:02:41.628Z,5
2017-09-20T08:03:42.460Z,5
2017-09-20T08:04:43.243Z,5
2017-09-20T08:07:00.160Z,5
2017-09-20T08:08:00.997Z,5
2017-09-20T08:09:01.883Z,5
2017-09-20T08:10:02.652Z,5
2017-09-20T08:11:03.413Z,5
2017-09-20T08:12:04.441Z,5
2017-09-20T08:13:05.176Z,5
2017-09-20T08:14:06.054Z,5
2017-09-20T08:15:06.917Z,5
2017-09-20T08:16:07.803Z,5
2017-09-20T08:17:08.646Z,5
2017-09-20T08:18:09.384Z,5
2017-09-20T08:19:10.154Z,5
2017-09-20T08:20:10.974Z,5
2017-09-20T08:21:11.930Z,5
2017-09-20T08:22:12.764Z,5
2017-09-20T08:23:13.462Z,5
2017-09-20T08:24:14.256Z,5
2017-09-20T08:25:15.076Z,5
2017-09-20T08:26:15.790Z,5
2017-09-20T08:27:16.527Z,5
2017-09-20T08:28:17.289Z,5
2017-09-20T08:29:18.059Z,5
2017-09-20T08:30:18.917Z,5
2017-09-20T08:31:19.683Z,5
2017-09-20T08:32:20.413Z,10
2017-09-20T08:33:21.234Z,10
2017-09-20T08:34:21.960Z,10
2017-09-20T08:35:22.782Z,10
2017-09-20T08:36:23.505Z,10
2017-09-20T08:37:24.258Z,10
2017-09-20T08:38:25.459Z,10
2017-09-20T08:39:26.132Z,10
2017-09-20T08:40:27.017Z,5
2017-09-20T08:41:28.099Z,5
2017-09-20T08:42:28.976Z,5
2017-09-20T08:43:29.705Z,5
2017-09-20T08:44:30.432Z,5
2017-09-20T08:45:31.163Z,5
2017-09-20T08:46:31.916Z,5
2017-09-20T08:47:32.725Z,5
2017-09-20T08:48:33.554Z,5
2017-09-20T08:49:34.282Z,5
2017-09-20T08:50:35.048Z,5
2017-09-20T08:51:36.499Z,5
2017-09-20T08:52:37.233Z,5
2017-09-20T08:53:37.958Z,5
2017-09-20T08:54:38.770Z,5
2017-09-20T08:55:39.505Z,5
2017-09-20T08:56:40.333Z,10
2017-09-20T08:57:41.019Z,10
2017-09-20T08:58:41.835Z,10
2017-09-20T08:59:42.662Z,10
2017-09-20T09:00:43.637Z,15
2017-09-20T09:01:44.329Z,10
2017-09-20T09:02:45.107Z,10
2017-09-20T09:03:45.825Z,10
2017-09-20T09:04:46.629Z,10
2017-09-20T09:05:47.360Z,10
2017-09-20T09:06:48.016Z,10
2017-09-20T09:07:48.846Z,10
2017-09-20T09:08:49.759Z,15
2017-09-20T09:09:50.781Z,15
2017-09-20T09:10:51.705Z,15
2017-09-20T09:11:52.493Z,15
2017-09-20T09:12:53.199Z,15
2017-09-20T09:13:53.985Z,15
2017-09-20T09:14:54.709Z,20
2017-09-20T09:15:55.627Z,20
2017-09-20T09:16:56.333Z,20
2017-09-20T09:17:57.077Z,20
2017-09-20T09:18:58.041Z,15
2017-09-20T09:19:58.829Z,20
2017-09-20T09:20:59.946Z,20
2017-09-20T09:22:00.756Z,20
2017-09-20T09:23:01.501Z,20
2017-09-20T09:24:02.236Z,20
2017-09-20T09:25:02.968Z,20
2017-09-20T09:26:03.812Z,20
2017-09-20T09:27:04.561Z,20
2017-09-20T09:28:05.240Z,20
2017-09-20T09:29:06.025Z,20
2017-09-20T09:30:06.847Z,20
2017-09-20T09:31:07.786Z,20
2017-09-20T09:32:09.147Z,20
2017-09-20T09:33:09.834Z,15
2017-09-20T09:34:10.706Z,15
2017-09-20T09:36:26.976Z,10
2017-09-20T09:37:28.099Z,10
2017-09-20T09:38:28.802Z,10
2017-09-20T09:39:29.587Z,10
2017-09-20T09:40:30.323Z,10
2017-09-20T09:41:31.279Z,5
2017-09-20T09:42:32.108Z,10
2017-09-20T09:43:32.835Z,10
2017-09-20T09:44:33.542Z,10
2017-09-20T09:45:34.588Z,5
2017-09-20T09:46:35.397Z,5
2017-09-20T09:47:36.181Z,5
2017-09-20T09:48:36.874Z,5
2017-09-20T09:49:37.651Z,10
2017-09-20T09:50:38.429Z,10
2017-09-20T09:51:39.134Z,15
2017-09-20T09:52:39.936Z,20
2017-09-20T09:53:40.630Z,20
2017-09-20T09:54:41.413Z,20
2017-09-20T09:55:42.197Z,20
2017-09-20T09:56:43.002Z,20
2017-09-20T09:57:43.776Z,15
2017-09-20T09:58:44.623Z,20
2017-09-20T09:59:45.627Z,20
2017-09-20T10:00:46.507Z,20
2017-09-20T10:01:47.179Z,20
2017-09-20T10:02:47.949Z,20
2017-09-20T10:03:48.704Z,20
2017-09-20T10:04:49.444Z,15
2017-09-20T10:05:50.204Z,15
2017-09-20T10:06:51.046Z,15
2017-09-20T10:07:52.198Z,15
2017-09-20T10:08:52.927Z,15
2017-09-20T10:09:53.710Z,15
2017-09-20T10:10:54.437Z,15
2017-09-20T10:11:55.241Z,10
2017-09-20T10:12:55.999Z,10
2017-09-20T10:13:56.741Z,15
2017-09-20T10:14:57.546Z,15
2017-09-20T10:15:58.370Z,15
2017-09-20T10:16:59.409Z,15
2017-09-20T10:18:00.172Z,20
2017-09-20T10:19:01.655Z,15
2017-09-20T10:20:02.434Z,20
2017-09-20T10:21:03.287Z,20
2017-09-20T10:22:03.988Z,20
2017-09-20T10:23:04.756Z,20
2017-09-20T10:24:05.564Z,20
2017-09-20T10:25:06.355Z,15
2017-09-20T10:26:07.111Z,20
2017-09-20T10:27:07.807Z,20
2017-09-20T10:28:08.604Z,20
2017-09-20T10:29:09.348Z,20
2017-09-20T10:30:10.140Z,20
2017-09-20T10:31:10.898Z,20
2017-09-20T10:32:11.682Z,15
2017-09-20T10:33:12.439Z,10
2017-09-20T10:34:13.184Z,15
2017-09-20T10:35:13.940Z,15
2017-09-20T10:36:14.776Z,15
2017-09-20T10:37:15.572Z,15
2017-09-20T10:38:16.396Z,15
2017-09-20T10:39:17.079Z,15
2017-09-20T10:40:18.004Z,15
2017-09-20T10:41:18.679Z,15
2017-09-20T10:42:19.494Z,20
2017-09-20T10:43:20.229Z,15
2017-09-20T10:44:21.071Z,20
2017-09-20T10:45:21.900Z,15
2017-09-20T10:46:22.567Z,10
2017-09-20T10:47:23.391Z,15
2017-09-20T10:48:24.149Z,15
2017-09-20T10:49:24.915Z,15
2017-09-20T10:50:25.701Z,15
2017-09-20T10:51:26.447Z,15
2017-09-20T10:52:27.098Z,15
2017-09-20T10:53:27.855Z,15
2017-09-20T10:54:28.591Z,15
2017-09-20T10:55:29.396Z,15
2017-09-20T10:56:30.105Z,15
2017-09-20T10:57:30.954Z,30
2017-09-20T10:58:31.746Z,40
2017-09-20T10:59:32.751Z,20
2017-09-20T11:00:33.500Z,15
2017-09-20T11:01:34.220Z,25
2017-09-20T11:02:34.986Z,20
2017-09-20T11:03:35.756Z,10
2017-09-20T11:04:36.471Z,10
2017-09-20T11:05:37.210Z,20
2017-09-20T11:06:38.038Z,15
2017-09-20T11:07:38.843Z,10
2017-09-20T11:08:39.583Z,10
2017-09-20T11:09:40.389Z,10
2017-09-20T11:10:41.318Z,10
2017-09-20T11:11:42.093Z,10
2017-09-20T11:12:42.867Z,10
2017-09-20T11:13:43.708Z,15
2017-09-20T11:14:44.476Z,15
2017-09-20T11:15:45.352Z,20
2017-09-20T11:16:46.117Z,15
2017-09-20T11:17:46.926Z,15
2017-09-20T11:18:47.661Z,15
2017-09-20T11:19:48.690Z,15
2017-09-20T11:20:49.768Z,10
2017-09-20T11:21:50.547Z,15
2017-09-20T11:22:51.362Z,15
2017-09-20T11:23:52.273Z,15
2017-09-20T11:24:53.153Z,15
2017-09-20T11:25:54.593Z,10
2017-09-20T11:26:55.416Z,10
2017-09-20T11:27:56.159Z,10
2017-09-20T11:28:57.017Z,15
2017-09-20T11:29:57.973Z,15
2017-09-20T11:30:59.145Z,15
2017-09-20T11:31:59.912Z,15
2017-09-20T11:33:00.629Z,15
2017-09-20T11:34:01.375Z,15
2017-09-20T11:35:02.393Z,15
2017-09-20T11:36:03.067Z,15
2017-09-20T11:37:04.484Z,15
2017-09-20T11:38:05.333Z,15
2017-09-20T11:39:06.058Z,10
2017-09-20T11:40:06.817Z,15
2017-09-20T11:41:07.588Z,15
2017-09-20T11:42:08.599Z,15
2017-09-20T11:43:09.361Z,15
2017-09-20T11:44:10.123Z,10
2017-09-20T11:45:10.969Z,15
2017-09-20T11:46:12.292Z,15
2017-09-20T11:47:13.042Z,15
2017-09-20T11:48:13.976Z,15
2017-09-20T11:49:14.803Z,15
2017-09-20T11:50:15.576Z,15
2017-09-20T11:51:16.341Z,15
2017-09-20T11:52:17.176Z,15
2017-09-20T11:53:17.988Z,15
2017-09-20T11:54:18.702Z,15
2017-09-20T11:55:19.543Z,15
2017-09-20T11:56:20.277Z,15
2017-09-20T11:57:20.989Z,15
2017-09-20T11:58:22.211Z,15
2017-09-20T11:59:23.151Z,15
2017-09-20T12:00:23.988Z,15
2017-09-20T12:01:24.765Z,15
2017-09-20T12:02:25.549Z,15
2017-09-20T12:03:26.366Z,15
2017-09-20T12:04:27.075Z,15
2017-09-20T12:05:27.789Z,10
2017-09-20T12:06:28.614Z,10
2017-09-20T12:07:29.360Z,15
2017-09-20T12:08:30.061Z,15
2017-09-20T12:09:30.791Z,15
2017-09-20T12:10:31.535Z,15
2017-09-20T12:11:32.286Z,15
2017-09-20T12:12:33.093Z,15
2017-09-20T12:13:33.829Z,15
2017-09-20T12:14:34.790Z,15
2017-09-20T12:15:35.664Z,15
2017-09-20T12:16:36.514Z,15
2017-09-20T12:17:37.246Z,15
2017-09-20T12:18:38.013Z,15
2017-09-20T12:19:38.880Z,5
2017-09-20T12:20:39.724Z,5
2017-09-20T12:21:40.495Z,5
2017-09-20T12:22:41.234Z,15
2017-09-20T12:23:42.038Z,15
2017-09-20T12:24:42.893Z,15
2017-09-20T12:25:43.625Z,15
2017-09-20T12:26:44.453Z,15
2017-09-20T12:27:45.258Z,15
2017-09-20T12:28:46.004Z,15
2017-09-20T12:29:46.917Z,15
2017-09-20T12:30:47.771Z,15
2017-09-20T12:31:48.488Z,15
2017-09-20T12:32:49.314Z,15
2017-09-20T12:33:50.283Z,15
2017-09-20T12:34:51.023Z,15
2017-09-20T12:35:51.854Z,15
2017-09-20T12:36:52.668Z,15
2017-09-20T12:37:53.410Z,15
2017-09-20T12:38:54.257Z,10
2017-09-20T12:39:55.066Z,15
2017-09-20T12:40:55.801Z,5
2017-09-20T12:41:56.539Z,5
2017-09-20T12:42:57.517Z,5
2017-09-20T12:43:58.563Z,5
2017-09-20T12:44:59.271Z,5
2017-09-20T12:46:00.330Z,5
2017-09-20T12:47:01.279Z,5
2017-09-20T12:48:02.067Z,5
2017-09-20T12:49:02.889Z,5
2017-09-20T12:50:03.624Z,5
2017-09-20T12:51:04.366Z,5
2017-09-20T12:52:05.094Z,5
2017-09-20T12:53:05.823Z,5
2017-09-20T12:54:06.539Z,5
2017-09-20T12:55:07.253Z,5
2017-09-20T12:56:08.081Z,5
2017-09-20T12:57:08.802Z,0
2017-09-20T12:58:09.850Z,0
2017-09-20T12:59:10.570Z,0
2017-09-20T13:00:11.301Z,0
2017-09-20T13:01:12.303Z,0
2017-09-20T13:02:13.051Z,0
2017-09-20T13:03:13.782Z,0
2017-09-20T13:04:14.624Z,0
2017-09-20T13:05:15.387Z,0
2017-09-20T13:06:16.172Z,0
2017-09-20T13:07:16.953Z,0
2017-09-20T13:08:17.806Z,0
2017-09-20T13:09:18.935Z,0
2017-09-20T13:10:19.645Z,0
2017-09-20T13:11:21.116Z,0
2017-09-20T13:12:21.843Z,0
2017-09-20T13:13:22.654Z,0
2017-09-20T13:14:23.510Z,0
2017-09-20T13:15:24.268Z,0
2017-09-20T13:16:25.016Z,0
2017-09-20T13:17:25.890Z,0
2017-09-20T13:18:26.706Z,0
2017-09-20T13:19:27.478Z,0
2017-09-20T13:20:28.311Z,0
2017-09-20T13:21:29.016Z,0
2017-09-20T13:22:29.795Z,0
2017-09-20T13:23:30.568Z,0
2017-09-20T13:24:31.330Z,0
2017-09-20T13:25:32.202Z,0
2017-09-20T13:26:33.207Z,0
2017-09-20T13:27:33.912Z,0
2017-09-20T13:28:34.832Z,0
2017-09-20T13:29:35.609Z,0
2017-09-20T13:30:36.382Z,0
2017-09-20T13:31:37.111Z,0
2017-09-20T13:32:37.900Z,0
2017-09-20T13:33:38.916Z,0
2017-09-20T13:34:39.960Z,0
2017-09-20T13:35:40.706Z,0
2017-09-20T13:36:41.548Z,0
2017-09-20T13:37:42.342Z,5
2017-09-20T13:38:43.098Z,5
2017-09-20T13:39:43.940Z,5
2017-09-20T13:40:44.695Z,5
2017-09-20T13:41:45.569Z,5
2017-09-20T13:42:46.311Z,5
2017-09-20T13:43:46.980Z,5
2017-09-20T13:44:47.707Z,5
2017-09-20T13:45:48.561Z,5
2017-09-20T13:46:49.402Z,5
2017-09-20T13:47:50.123Z,5
2017-09-20T13:48:50.929Z,5
2017-09-20T13:49:51.966Z,5
2017-09-20T13:50:52.770Z,5
2017-09-20T13:51:53.552Z,5
2017-09-20T13:52:54.274Z,5
2017-09-20T13:53:55.171Z,5
2017-09-20T13:54:55.927Z,5
2017-09-20T13:55:56.669Z,5
2017-09-20T13:56:57.464Z,5
2017-09-20T13:57:58.231Z,5
2017-09-20T13:58:59.074Z,5
2017-09-20T13:59:59.794Z,5
2017-09-20T14:01:00.545Z,5
2017-09-20T14:02:01.302Z,5
2017-09-20T14:03:02.218Z,5
2017-09-20T14:04:02.989Z,5
2017-09-20T14:05:03.868Z,5
2017-09-20T14:06:04.601Z,5
2017-09-20T14:07:05.308Z,5
2017-09-20T14:08:06.157Z,5
2017-09-20T14:09:06.878Z,5
2017-09-20T14:10:07.874Z,5
2017-09-20T14:11:08.586Z,5
2017-09-20T14:12:09.338Z,5
2017-09-20T14:13:10.439Z,5
2017-09-20T14:14:11.480Z,5
2017-09-20T14:15:12.329Z,5
2017-09-20T14:16:13.148Z,5
2017-09-20T14:17:14.023Z,5
2017-09-20T14:18:14.752Z,5
2017-09-20T14:19:15.472Z,5
2017-09-20T14:20:16.231Z,5
2017-09-20T14:21:17.023Z,5
2017-09-20T14:22:17.815Z,5
2017-09-20T14:23:18.560Z,5
2017-09-20T14:24:19.307Z,5
2017-09-20T14:25:20.050Z,5
2017-09-20T14:26:21.011Z,5
2017-09-20T14:27:21.800Z,5
2017-09-20T14:28:22.552Z,5
2017-09-20T14:29:23.437Z,5
2017-09-20T14:30:24.276Z,5
2017-09-20T14:31:25.082Z,5
2017-09-20T14:32:25.809Z,5
2017-09-20T14:33:26.823Z,5
2017-09-20T14:34:27.581Z,5
2017-09-20T14:35:28.427Z,5
2017-09-20T14:36:29.342Z,5
2017-09-20T14:37:30.031Z,5
2017-09-20T14:38:30.794Z,5
2017-09-20T14:39:31.601Z,5
2017-09-20T14:40:32.399Z,5
2017-09-20T14:41:33.107Z,5
2017-09-20T14:42:33.799Z,5
2017-09-20T14:43:34.558Z,0
2017-09-20T14:44:35.432Z,0
2017-09-20T14:45:36.295Z,0
2017-09-20T14:46:37.092Z,0
2017-09-20T14:47:37.940Z,0
2017-09-20T14:48:38.791Z,0
2017-09-20T14:49:39.587Z,0
2017-09-20T14:50:40.367Z,0
2017-09-20T14:51:41.120Z,0
2017-09-20T14:52:41.852Z,0
2017-09-20T14:53:42.706Z,0
2017-09-20T14:54:43.436Z,0
2017-09-20T14:55:44.277Z,0
2017-09-20T14:56:45.018Z,0